Time;durP1;ratioP1;P1;durP2;ratioP2;P2;SDS_P1;SDS_P2;PMS_P1;PMS_P2;Temp;Humidity;BMP_temperature;BMP_pressure;BME280_temperature;BME280_humidity;BME280_pressure;Samples;Min_cycle;Max_cycle;Signal;HPM_P1;HPM_P2
2022/02/01 00:00:09;;;;;;;20.27;3.13;;;4.20;99.90;;;4.70;100.00;98390.22;5070228;28;20473;-77
2022/02/01 00:18:42;;;;;;;20.67;3.87;;;4.10;99.90;;;4.61;100.00;98422.16;5009126;28;21078;-77
2022/02/01 00:35:29;;;;;;;21.43;2.57;;;4.10;99.90;;;4.63;100.00;98437.53;5065137;28;20466;-77
2022/02/01 00:38:18;;;;;;;11.40;2.30;;;4.10;99.90;;;4.55;100.00;98446.81;5067947;28;20519;-78
2022/02/01 00:40:54;;;;;;;7.20;2.00;;;4.00;99.90;;;4.55;100.00;98443.41;5072736;28;20954;-77
2022/02/01 00:43:24;;;;;;;23.33;2.70;;;4.00;99.90;;;4.46;100.00;98452.81;5078569;28;20844;-77
2022/02/01 00:45:55;;;;;;;7.00;1.80;;;3.90;99.90;;;4.48;100.00;98461.25;5068413;28;20494;-77
2022/02/01 00:48:26;;;;;;;7.70;1.93;;;3.90;99.90;;;4.46;100.00;98458.00;5071075;28;20997;-77
2022/02/01 00:50:57;;;;;;;13.87;2.23;;;3.90;99.90;;;4.49;100.00;98452.56;5072474;28;20491;-77
2022/02/01 00:53:31;;;;;;;15.00;2.80;;;3.90;99.90;;;4.51;100.00;98455.81;5072607;28;20518;-77
2022/02/01 00:56:02;;;;;;;9.97;2.13;;;4.00;99.90;;;4.48;100.00;98444.91;5072648;28;20817;-77
2022/02/01 00:58:32;;;;;;;14.90;2.83;;;4.00;99.90;;;4.42;100.00;98466.19;5077417;28;20477;-77
2022/02/01 01:01:01;;;;;;;8.27;1.87;;;3.90;99.90;;;4.43;100.00;98463.47;5076365;28;20874;-77
2022/02/01 01:03:31;;;;;;;12.13;2.27;;;3.80;99.90;;;4.47;100.00;98474.38;5078829;28;20512;-77
2022/02/01 01:06:01;;;;;;;16.13;2.10;;;3.80;99.90;;;4.43;100.00;98473.81;5070830;28;20465;-77
2022/02/01 01:08:32;;;;;;;12.73;2.03;;;3.80;99.90;;;4.46;100.00;98465.78;5069032;28;20470;-77
2022/02/01 01:11:04;;;;;;;10.10;2.47;;;3.80;99.90;;;4.46;100.00;98458.00;5073040;28;20891;-77
2022/02/01 01:16:34;;;;;;;11.40;2.27;;;3.90;99.90;;;4.49;100.00;98473.25;5066172;28;20910;-77
2022/02/01 01:38:56;;;;;;;11.33;1.90;;;3.90;99.90;;;4.41;100.00;98511.97;5078527;28;20473;-77
2022/02/01 01:44:23;;;;;;;14.20;2.53;;;3.90;99.90;;;4.26;100.00;98536.63;5078901;28;20448;-77
2022/02/01 02:04:29;;;;;;;8.33;2.00;;;3.70;99.90;;;4.27;100.00;98538.25;5053104;28;20473;-77
2022/02/01 02:15:12;;;;;;;14.97;2.27;;;3.70;99.90;;;4.22;100.00;98571.50;5049952;28;20837;-77
2022/02/01 02:17:42;;;;;;;12.47;2.43;;;3.60;99.90;;;4.19;100.00;98579.53;5046474;28;20886;-77
2022/02/01 02:20:15;;;;;;;8.90;2.27;;;3.60;99.90;;;4.15;100.00;98583.34;5043165;28;20466;-77
2022/02/01 02:22:47;;;;;;;9.40;2.07;;;3.60;99.90;;;4.15;100.00;98585.91;5044336;28;20474;-77
2022/02/01 02:25:17;;;;;;;10.33;2.20;;;3.50;99.90;;;4.14;100.00;98581.69;5044239;28;20471;-77
2022/02/01 02:27:47;;;;;;;5.40;1.80;;;3.50;99.90;;;4.13;100.00;98558.53;5047420;28;20514;-77
2022/02/01 02:30:16;;;;;;;11.77;2.50;;;3.50;99.90;;;4.14;100.00;98560.16;5047937;28;20741;-77
2022/02/01 02:32:47;;;;;;;7.97;2.40;;;3.60;99.90;;;4.16;100.00;98564.28;5047270;28;20587;-77
2022/02/01 02:35:17;;;;;;;17.50;2.70;;;3.60;99.90;;;4.13;100.00;98568.91;5048101;28;20468;-77
2022/02/01 02:37:49;;;;;;;9.10;2.10;;;3.60;99.90;;;4.11;100.00;98558.66;5047094;28;20493;-77
2022/02/01 02:40:36;;;;;;;11.50;2.03;;;3.50;99.90;;;4.07;100.00;98571.06;5050850;28;20455;-78
2022/02/01 02:45:54;;;;;;;7.50;1.83;;;3.50;99.90;;;4.05;100.00;98548.84;5047975;28;20477;-77
2022/02/01 02:48:24;;;;;;;10.40;1.97;;;3.40;99.90;;;4.05;100.00;98556.63;5053042;28;20457;-77
2022/02/01 02:50:54;;;;;;;6.37;2.10;;;3.40;99.90;;;4.10;100.00;98546.66;5053109;28;20537;-77
2022/02/01 02:53:24;;;;;;;3.57;1.80;;;3.50;99.90;;;4.03;100.00;98561.91;5049269;28;21055;-77
2022/02/01 02:55:53;;;;;;;10.77;2.40;;;3.40;99.90;;;3.99;100.00;98570.09;5049855;28;20480;-77
2022/02/01 02:58:23;;;;;;;6.93;2.00;;;3.30;99.90;;;4.02;100.00;98590.53;5050721;28;20456;-77
2022/02/01 03:00:53;;;;;;;7.33;2.30;;;3.40;99.90;;;4.01;100.00;98581.94;5050691;28;20455;-77
2022/02/01 03:03:24;;;;;;;16.67;2.77;;;3.50;99.90;;;4.04;100.00;98578.25;5063019;28;20491;-77
2022/02/01 03:05:54;;;;;;;19.00;2.70;;;3.50;99.90;;;4.02;100.00;98564.66;5077927;28;20537;-77
2022/02/01 03:08:26;;;;;;;17.90;2.80;;;3.30;99.90;;;4.04;100.00;98560.97;5076035;28;20819;-77
2022/02/01 03:10:56;;;;;;;11.37;2.00;;;3.40;99.90;;;4.07;100.00;98572.81;5076105;28;20475;-77
2022/02/01 03:13:29;;;;;;;9.67;2.00;;;3.50;99.90;;;4.08;100.00;98577.06;5072034;28;20556;-77
2022/02/01 03:16:05;;;;;;;9.67;4.47;;;3.40;99.90;;;4.09;100.00;98577.88;5071110;28;20879;-77
2022/02/01 03:21:22;;;;;;;9.50;2.77;;;3.50;99.90;;;4.11;100.00;98588.91;5079122;28;20801;-78
2022/02/01 03:23:53;;;;;;;5.73;2.00;;;3.40;99.90;;;4.07;100.00;98611.63;5072123;28;21008;-77
2022/02/01 03:26:23;;;;;;;6.87;1.63;;;3.40;99.90;;;4.03;100.00;98620.59;5076925;28;20464;-77
2022/02/01 03:28:53;;;;;;;6.93;2.07;;;3.30;99.90;;;4.01;100.00;98620.75;5074910;28;20908;-77
2022/02/01 03:31:23;;;;;;;8.80;2.77;;;3.30;99.90;;;3.99;100.00;98619.25;5075925;28;20463;-77
2022/02/01 03:33:53;;;;;;;22.57;2.77;;;3.30;99.90;;;3.95;100.00;98604.94;5072047;28;20561;-77
2022/02/01 03:44:38;;;;;;;4.83;1.93;;;3.20;99.90;;;3.98;100.00;98622.78;5073597;28;20495;-77
2022/02/01 03:47:08;;;;;;;7.73;2.30;;;3.20;99.90;;;3.98;100.00;98635.72;5074504;28;20467;-77
2022/02/01 03:49:41;;;;;;;7.60;1.40;;;3.10;99.90;;;3.99;100.00;98634.78;5074032;28;20467;-77
2022/02/01 03:52:12;;;;;;;7.83;1.40;;;3.30;99.90;;;3.99;100.00;98625.22;5079323;28;20998;-77
2022/02/01 03:54:43;;;;;;;8.30;2.70;;;3.30;99.90;;;4.01;100.00;98630.28;5076741;28;20465;-78
2022/02/01 03:57:15;;;;;;;6.50;2.07;;;3.40;99.90;;;3.99;100.00;98621.84;5073625;28;20457;-77
2022/02/01 03:59:46;;;;;;;8.67;1.70;;;3.30;99.90;;;3.99;100.00;98629.59;5071103;28;20543;-78
2022/02/01 04:02:18;;;;;;;12.23;2.07;;;3.30;99.90;;;4.00;100.00;98626.03;5071155;28;20469;-77
2022/02/01 04:04:53;;;;;;;5.40;1.90;;;3.30;99.90;;;3.97;100.00;98631.47;5071931;28;20571;-77
2022/02/01 04:07:22;;;;;;;7.90;2.03;;;3.20;99.90;;;3.98;100.00;98620.19;5072496;28;21293;-77
2022/02/01 04:09:52;;;;;;;8.60;2.57;;;3.40;99.90;;;3.94;100.00;98632.56;5072409;28;20504;-77
2022/02/01 04:12:23;;;;;;;12.13;2.20;;;3.40;99.90;;;3.97;100.00;98632.31;5072610;28;20523;-77
2022/02/01 04:14:57;;;;;;;7.40;2.30;;;3.40;99.90;;;3.94;100.00;98624.00;5068026;28;20492;-77
2022/02/01 04:17:26;;;;;;;14.57;3.33;;;3.30;99.90;;;3.94;100.00;98611.88;5066492;28;20469;-78
2022/02/01 04:19:55;;;;;;;4.53;1.93;;;3.20;99.90;;;3.91;100.00;98609.56;5069725;28;20464;-78
2022/02/01 04:22:24;;;;;;;7.80;1.67;;;3.20;99.90;;;3.90;100.00;98610.50;5067975;28;20471;-78
2022/02/01 04:24:54;;;;;;;8.83;1.80;;;3.30;99.90;;;3.91;100.00;98606.97;5068354;28;20597;-78
2022/02/01 04:27:30;;;;;;;6.80;2.03;;;3.40;99.90;;;3.87;100.00;98615.13;5069850;28;20523;-77
2022/02/01 04:30:07;;;;;;;8.93;2.80;;;3.20;99.90;;;3.84;100.00;98616.19;5066556;28;20458;-77
2022/02/01 04:32:42;;;;;;;9.00;1.93;;;3.30;99.90;;;3.85;100.00;98617.81;5069264;28;20615;-78
2022/02/01 04:35:15;;;;;;;20.63;3.43;;;3.30;99.90;;;3.82;100.00;98612.91;5073422;28;20466;-79
2022/02/01 04:37:45;;;;;;;7.00;1.80;;;3.30;99.90;;;3.84;100.00;98616.19;5069038;28;20481;-77
2022/02/01 04:40:19;;;;;;;8.87;2.20;;;3.20;99.90;;;3.90;100.00;98623.44;5071892;28;20464;-77
2022/02/01 04:42:49;;;;;;;9.57;2.10;;;3.10;99.90;;;3.91;100.00;98624.25;5064077;28;20463;-78
2022/02/01 04:45:23;;;;;;;33.17;8.70;;;3.20;99.90;;;3.91;100.00;98614.72;5069164;28;20504;-77
2022/02/01 04:47:53;;;;;;;7.43;1.90;;;3.30;99.90;;;3.94;100.00;98626.56;5066019;28;20465;-77
2022/02/01 04:50:26;;;;;;;10.80;1.87;;;3.30;99.90;;;3.95;100.00;98612.69;5072164;28;20455;-77
2022/02/01 04:52:57;;;;;;;6.33;1.63;;;3.30;99.90;;;3.94;100.00;98609.28;5064844;28;20583;-77
2022/02/01 04:55:42;;;;;;;9.87;2.90;;;3.30;99.90;;;3.96;100.00;98614.31;5068399;28;20470;-77
2022/02/01 04:58:12;;;;;;;13.83;2.00;;;3.30;99.90;;;3.94;100.00;98614.47;5070798;28;21026;-80
2022/02/01 05:00:43;;;;;;;9.10;2.13;;;3.40;99.90;;;3.96;100.00;98622.06;5076666;28;20463;-78
2022/02/01 05:03:14;;;;;;;9.47;2.40;;;3.30;99.90;;;3.97;100.00;98632.31;5078449;28;21072;-77
2022/02/01 05:05:44;;;;;;;13.30;2.37;;;3.30;99.90;;;3.99;100.00;98624.44;5079364;28;21047;-77
2022/02/01 05:08:14;;;;;;;11.00;2.33;;;3.30;99.90;;;4.00;100.00;98623.44;5079605;28;20531;-77
2022/02/01 05:10:44;;;;;;;7.60;1.90;;;3.30;99.90;;;3.96;100.00;98619.50;5079375;28;20884;-77
2022/02/01 05:13:44;;;;;;;18.17;2.00;;;3.30;99.90;;;3.93;100.00;98614.59;5077249;28;20497;-77
2022/02/01 05:16:19;;;;;;;9.40;2.43;;;3.30;99.90;;;3.94;100.00;98611.88;5079059;28;20518;-77
2022/02/01 05:19:00;;;;;;;5.90;2.00;;;3.30;99.90;;;3.96;100.00;98603.97;5079351;28;20589;-78
2022/02/01 05:21:36;;;;;;;11.90;2.50;;;3.30;99.90;;;3.94;100.00;98613.63;5079364;28;20465;-77
2022/02/01 05:24:09;;;;;;;7.90;1.93;;;3.30;99.90;;;3.98;100.00;98596.91;5077188;28;20473;-76
2022/02/01 05:26:39;;;;;;;15.30;4.10;;;3.30;99.90;;;3.94;100.00;98613.63;5063937;28;20796;-79
2022/02/01 05:29:09;;;;;;;9.13;2.43;;;3.30;99.90;;;3.96;100.00;98607.38;5071137;28;20512;-76
2022/02/01 05:31:40;;;;;;;31.87;14.20;;;3.40;99.90;;;3.94;100.00;98596.34;5067896;28;20484;-78
2022/02/01 05:34:17;;;;;;;7.50;2.63;;;3.30;99.90;;;3.97;100.00;98592.69;5068652;28;20834;-76
2022/02/01 05:36:48;;;;;;;6.90;2.40;;;3.30;99.90;;;3.98;100.00;98597.72;5065754;28;20473;-76
2022/02/01 05:39:19;;;;;;;8.32;3.10;;;3.40;99.90;;;3.98;100.00;98602.09;5068149;28;20492;-78
2022/02/01 05:41:50;;;;;;;12.93;2.43;;;3.40;99.90;;;3.96;100.00;98598.78;5079280;28;20328;-76
2022/02/01 05:44:20;;;;;;;10.37;2.20;;;3.30;99.90;;;4.01;100.00;98607.81;5081797;28;20524;-76
2022/02/01 05:46:51;;;;;;;10.30;2.33;;;3.40;99.90;;;3.94;100.00;98611.06;5082122;28;20453;-77
2022/02/01 05:49:21;;;;;;;9.90;1.90;;;3.40;99.90;;;3.85;100.00;98627.38;5080098;28;20463;-77
2022/02/01 05:51:51;;;;;;;5.10;1.73;;;3.30;99.90;;;3.85;100.00;98642.88;5081930;28;20440;-76
2022/02/01 05:54:25;;;;;;;3.80;1.60;;;3.30;99.90;;;3.85;100.00;98637.72;5081926;28;20933;-76
2022/02/01 05:56:54;;;;;;;6.83;1.87;;;3.30;99.90;;;3.81;100.00;98646.69;5081888;28;20866;-77
2022/02/01 05:59:23;;;;;;;6.87;1.70;;;3.30;99.90;;;3.72;100.00;98631.91;5080324;28;20652;-77
2022/02/01 06:01:56;;;;;;;10.03;1.90;;;3.10;99.90;;;3.74;100.00;98636.03;5081997;28;20805;-77
2022/02/01 06:04:26;;;;;;;5.57;2.20;;;3.10;99.90;;;3.74;100.00;98636.03;5085189;28;20451;-76
2022/02/01 06:06:56;;;;;;;4.63;1.53;;;3.10;99.90;;;3.75;100.00;98636.84;5087174;28;20447;-77
2022/02/01 06:09:26;;;;;;;7.07;2.07;;;3.20;99.90;;;3.73;100.00;98654.25;5086542;28;20436;-77
2022/02/01 06:11:55;;;;;;;11.07;1.80;;;3.10;99.90;;;3.77;100.00;98653.06;5085502;28;20439;-76
2022/02/01 06:14:25;;;;;;;13.33;1.80;;;3.10;99.90;;;3.78;100.00;98655.53;5084349;28;21030;-77
2022/02/01 06:16:56;;;;;;;9.17;2.13;;;3.10;99.90;;;3.83;100.00;98660.28;5086695;28;20443;-76
2022/02/01 06:19:25;;;;;;;6.33;1.53;;;3.20;99.90;;;3.74;100.00;98661.91;5085189;28;20443;-77
2022/02/01 06:21:55;;;;;;;7.67;1.87;;;3.10;99.90;;;3.72;100.00;98652.59;5085674;28;20817;-76
2022/02/01 06:24:24;;;;;;;5.83;1.70;;;3.00;99.90;;;3.73;100.00;98654.25;5086931;28;20448;-76
2022/02/01 06:26:53;;;;;;;4.77;1.80;;;3.00;99.90;;;3.75;100.00;98642.03;5084411;28;20455;-76
2022/02/01 06:29:22;;;;;;;10.50;1.87;;;3.10;99.90;;;3.76;100.00;98648.81;5087628;28;20480;-77
2022/02/01 06:31:51;;;;;;;3.80;1.97;;;3.10;99.90;;;3.78;100.00;98639.19;5084563;28;20972;-76
2022/02/01 06:34:23;;;;;;;5.97;2.03;;;3.10;99.90;;;3.78;100.00;98634.84;5085869;28;20495;-77
2022/02/01 06:36:54;;;;;;;12.20;1.87;;;3.20;99.90;;;3.77;100.00;98645.28;5085622;28;20845;-76
2022/02/01 06:39:26;;;;;;;5.30;1.80;;;3.10;99.90;;;3.75;100.00;98636.84;5083786;28;20498;-77
2022/02/01 06:41:56;;;;;;;4.93;1.90;;;3.00;99.90;;;3.81;100.00;98631.16;5085178;28;20491;-76
2022/02/01 06:44:27;;;;;;;7.10;2.70;;;3.10;99.90;;;3.84;100.00;98621.38;5082961;28;20959;-77
2022/02/01 06:46:57;;;;;;;8.10;1.90;;;3.20;99.90;;;3.82;100.00;98622.44;5085504;28;20441;-77
2022/02/01 06:49:30;;;;;;;7.30;2.07;;;3.30;99.90;;;3.85;100.00;98615.22;5082445;28;20539;-76
2022/02/01 06:52:01;;;;;;;6.17;1.90;;;3.30;99.90;;;3.75;100.00;98606.63;5080659;28;20452;-76
2022/02/01 06:54:33;;;;;;;14.40;2.00;;;3.20;99.90;;;3.77;100.00;98599.56;5078377;28;20505;-76
2022/02/01 06:57:05;;;;;;;6.20;2.10;;;3.10;99.90;;;3.79;100.00;98587.31;5077617;28;20450;-76
2022/02/01 06:59:35;;;;;;;13.30;2.70;;;3.30;99.90;;;3.82;100.00;98581.03;5077879;28;20448;-76
2022/02/01 07:02:06;;;;;;;9.37;2.17;;;3.30;99.90;;;3.81;100.00;98585.44;5076817;28;20551;-76
2022/02/01 07:04:42;;;;;;;11.60;2.10;;;3.20;99.90;;;3.78;100.00;98582.28;5077202;28;20452;-76
2022/02/01 07:07:13;;;;;;;5.83;2.03;;;3.20;99.90;;;3.79;100.00;98573.56;5076983;28;20452;-76
2022/02/01 07:09:43;;;;;;;8.40;2.57;;;3.20;99.90;;;3.79;100.00;98571.78;5076183;28;20467;-76
2022/02/01 07:12:15;;;;;;;11.97;2.40;;;3.20;99.90;;;3.74;100.00;98576.56;5077778;28;20453;-76
2022/02/01 07:14:44;;;;;;;5.83;2.20;;;3.10;99.90;;;3.70;100.00;98572.59;5075835;28;20538;-76
2022/02/01 07:17:14;;;;;;;9.60;2.20;;;3.10;99.90;;;3.68;100.00;98587.41;5078135;28;20462;-76
2022/02/01 07:19:45;;;;;;;5.23;2.07;;;3.00;99.90;;;3.72;100.00;98588.78;5079275;28;20486;-76
2022/02/01 07:22:14;;;;;;;6.87;2.33;;;3.20;99.90;;;3.74;100.00;98602.41;5082274;28;20485;-76
2022/02/01 07:24:55;;;;;;;6.40;2.53;;;3.20;99.90;;;3.80;100.00;98603.66;5086230;28;20799;-76
2022/02/01 07:27:37;;;;;;;13.13;2.20;;;3.30;99.90;;;3.81;100.00;98606.13;5084597;28;20450;-76
2022/02/01 07:30:11;;;;;;;14.90;2.40;;;3.30;99.90;;;3.86;100.00;98600.53;5083639;28;20508;-76
2022/02/01 07:32:41;;;;;;;10.73;2.30;;;3.40;99.90;;;3.89;100.00;98587.34;5085112;28;20451;-76
2022/02/01 07:35:11;;;;;;;6.60;2.00;;;3.30;99.90;;;3.91;100.00;98581.09;5083031;28;20488;-76
2022/02/01 07:37:42;;;;;;;7.43;1.97;;;3.30;99.90;;;3.92;100.00;98587.09;5084585;28;20463;-76
2022/02/01 07:40:14;;;;;;;7.93;2.00;;;3.20;99.90;;;3.96;100.00;98576.34;5083438;28;20452;-77
2022/02/01 07:42:44;;;;;;;5.30;2.33;;;3.30;99.90;;;3.97;100.00;98574.56;5084287;28;20816;-76
2022/02/01 07:45:20;;;;;;;7.67;2.07;;;3.30;99.90;;;3.99;100.00;98562.34;5083913;28;20461;-76
2022/02/01 07:47:49;;;;;;;9.10;2.60;;;3.40;99.90;;;3.99;100.00;98568.31;5083387;28;20444;-76
2022/02/01 07:50:21;;;;;;;20.13;2.90;;;3.40;99.90;;;4.02;100.00;98578.41;5084390;28;20467;-76
2022/02/01 07:52:50;;;;;;;21.33;2.73;;;3.40;99.90;;;4.03;100.00;98576.63;5081868;28;20491;-76
2022/02/01 07:55:19;;;;;;;6.03;2.33;;;3.50;99.90;;;3.93;100.00;98586.94;5084205;28;20496;-77
2022/02/01 07:57:49;;;;;;;18.37;3.07;;;3.40;99.90;;;3.85;100.00;98573.84;5084151;28;20550;-76
2022/02/01 08:00:19;;;;;;;5.27;2.30;;;3.30;99.90;;;3.92;100.00;98582.72;5084991;28;20500;-76
2022/02/01 08:02:55;;;;;;;13.27;2.50;;;3.30;99.90;;;3.83;100.00;98574.94;5083355;28;20513;-76
2022/02/01 08:05:29;;;;;;;8.80;2.40;;;3.10;99.90;;;3.78;100.00;98569.34;5082298;28;20766;-76
2022/02/01 08:08:06;;;;;;;7.70;2.30;;;3.10;99.90;;;3.75;100.00;98567.03;5083684;28;20461;-76
2022/02/01 08:10:43;;;;;;;7.80;2.93;;;3.10;99.90;;;3.72;100.00;98567.28;5083592;28;20990;-76
2022/02/01 08:18:54;;;;;;;6.93;2.20;;;3.10;99.90;;;3.76;100.00;98558.31;5083099;28;20490;-76
2022/02/01 08:21:47;;;;;;;7.13;2.63;;;3.10;99.90;;;3.77;100.00;98563.34;5081336;28;20514;-76
2022/02/01 08:24:19;;;;;;;5.87;2.07;;;3.20;99.90;;;3.79;100.00;98561.44;5083450;28;20976;-77
2022/02/01 08:26:50;;;;;;;8.63;2.20;;;3.30;99.90;;;3.80;100.00;98562.28;5083473;28;20528;-76
2022/02/01 08:29:20;;;;;;;17.23;2.70;;;3.30;99.90;;;3.67;100.00;98562.50;5083901;28;20441;-76
2022/02/01 08:31:51;;;;;;;8.90;2.20;;;3.10;99.90;;;3.76;100.00;98556.53;5083369;28;20458;-77
2022/02/01 08:34:20;;;;;;;10.93;2.70;;;3.20;99.90;;;3.77;100.00;98567.72;5083642;28;20501;-76
2022/02/01 08:36:52;;;;;;;9.37;2.70;;;3.30;99.90;;;3.78;100.00;98564.19;5077608;28;20470;-77
2022/02/01 08:39:22;;;;;;;6.93;2.20;;;3.30;99.90;;;3.79;100.00;98560.63;5077446;28;20450;-77
2022/02/01 08:41:52;;;;;;;2.40;1.90;;;3.20;99.90;;;3.87;100.00;98568.56;5077003;28;20458;-76
2022/02/01 08:44:27;;;;;;;8.23;2.40;;;3.40;99.90;;;3.69;100.00;98559.78;5077868;28;20452;-76
2022/02/01 08:46:58;;;;;;;6.83;2.23;;;3.10;99.90;;;3.70;100.00;98561.44;5077129;28;20838;-77
2022/02/01 08:49:28;;;;;;;14.50;2.70;;;3.20;99.90;;;3.77;100.00;98562.53;5076498;28;20859;-76
2022/02/01 08:52:02;;;;;;;7.90;2.23;;;3.20;99.90;;;3.80;100.00;98546.75;5076243;28;20446;-76
2022/02/01 08:54:33;;;;;;;6.07;2.33;;;3.20;99.90;;;3.69;100.00;98552.84;5076296;28;20486;-76
2022/02/01 08:57:25;;;;;;;8.97;3.00;;;3.00;99.90;;;3.79;100.00;98550.28;5075718;28;20444;-76
2022/02/01 09:00:03;;;;;;;3.90;1.77;;;3.20;99.90;;;3.88;100.00;98552.09;5075575;28;20460;-76
2022/02/01 09:02:34;;;;;;;9.20;2.20;;;3.30;99.90;;;3.73;100.00;98548.22;5074749;28;20497;-77
2022/02/01 09:05:08;;;;;;;10.70;2.60;;;3.10;99.90;;;3.68;100.00;98553.00;5074951;28;20444;-76
2022/02/01 09:07:39;;;;;;;8.43;2.27;;;3.00;99.90;;;3.75;100.00;98543.75;5076836;28;21327;-76
2022/02/01 09:10:10;;;;;;;17.20;2.60;;;3.20;99.90;;;3.69;100.00;98544.25;5076450;28;20449;-76
2022/02/01 09:12:38;;;;;;;8.33;3.20;;;3.10;99.90;;;3.73;100.00;98546.47;5075692;28;20467;-76
2022/02/01 09:15:11;;;;;;;9.70;2.67;;;3.20;99.90;;;3.66;100.00;98529.84;5078296;28;20487;-77
2022/02/01 09:17:56;;;;;;;9.53;2.43;;;3.00;99.90;;;3.64;100.00;98536.09;5076849;28;20491;-76
2022/02/01 09:20:30;;;;;;;4.67;2.00;;;3.00;99.90;;;3.65;100.00;98537.72;5080334;28;20535;-76
2022/02/01 09:23:03;;;;;;;5.10;1.80;;;3.00;99.90;;;3.60;100.00;98538.13;5083771;28;20452;-76
2022/02/01 09:25:32;;;;;;;10.70;2.37;;;3.00;99.90;;;3.66;100.00;98536.78;5081831;28;20451;-77
2022/02/01 09:28:01;;;;;;;9.47;2.50;;;3.10;99.90;;;3.60;100.00;98543.28;5083405;28;20533;-76
2022/02/01 09:30:33;;;;;;;8.37;2.10;;;3.10;99.90;;;3.62;100.00;98548.31;5081103;28;20498;-77
2022/02/01 09:33:03;;;;;;;8.83;2.27;;;3.10;99.90;;;3.63;100.00;98544.78;5083016;28;20454;-76
2022/02/01 09:35:34;;;;;;;6.10;2.93;;;3.10;99.90;;;3.47;100.00;98548.66;5081895;28;20862;-76
2022/02/01 09:38:05;;;;;;;7.50;2.63;;;2.90;99.90;;;3.42;100.00;98543.09;5081630;28;20511;-76
2022/02/01 09:40:46;;;;;;;3.07;2.03;;;2.80;99.90;;;3.40;100.00;98534.63;5083158;28;20460;-76
2022/02/01 09:43:17;;;;;;;7.73;2.30;;;2.80;99.90;;;3.44;100.00;98533.44;5081929;28;20455;-77
2022/02/01 09:45:47;;;;;;;3.80;1.90;;;2.90;99.90;;;3.41;100.00;98533.69;5082725;28;20459;-77
2022/02/01 09:48:38;;;;;;;6.47;2.50;;;2.90;99.90;;;3.37;100.00;98528.91;5081716;28;20451;-76
2022/02/01 09:51:08;;;;;;;5.80;2.30;;;2.80;99.90;;;3.26;100.00;98527.25;5080102;28;20960;-76
2022/02/01 09:53:39;;;;;;;10.83;2.20;;;2.70;99.90;;;3.31;100.00;98519.91;5082289;28;20474;-76
2022/02/01 09:56:10;;;;;;;7.70;2.97;;;2.80;99.90;;;3.36;100.00;98520.34;5081199;28;21037;-76
2022/02/01 09:58:41;;;;;;;6.13;2.57;;;2.90;99.90;;;3.32;100.00;98516.41;5082249;28;20499;-76
2022/02/01 10:01:18;;;;;;;5.17;2.20;;;2.80;99.90;;;3.31;100.00;98514.75;5081290;28;20444;-76
2022/02/01 10:04:00;;;;;;;5.27;2.10;;;2.90;99.90;;;3.37;100.00;98516.81;5082017;28;20498;-76
2022/02/01 10:06:43;;;;;;;3.90;2.30;;;2.90;99.90;;;3.36;100.00;98511.78;5082531;28;20490;-77
2022/02/01 10:09:34;;;;;;;1.57;1.27;;;2.80;99.90;;;3.34;100.00;98511.91;5082160;28;20475;-76
2022/02/01 10:12:15;;;;;;;10.57;2.30;;;2.80;99.90;;;3.28;100.00;98499.50;5081529;28;20990;-76
2022/02/01 10:14:52;;;;;;;3.60;2.17;;;2.70;99.90;;;3.34;100.00;98488.63;5081020;28;20958;-76
2022/02/01 10:17:30;;;;;;;5.43;2.07;;;2.80;99.90;;;3.38;100.00;98473.69;5080794;28;20443;-76
2022/02/01 10:20:01;;;;;;;6.53;2.30;;;2.80;99.90;;;3.29;100.00;98472.72;5082362;28;20478;-76
2022/02/01 10:22:36;;;;;;;2.60;2.00;;;2.70;99.90;;;3.31;100.00;98472.56;5081666;28;20440;-76
2022/02/01 10:25:22;;;;;;;3.60;1.90;;;2.80;99.90;;;3.36;100.00;98450.59;5081818;28;20483;-76
2022/02/01 10:27:58;;;;;;;4.43;1.90;;;2.90;99.90;;;3.36;100.00;98442.00;5081497;28;20439;-76
2022/02/01 10:30:50;;;;;;;4.40;2.37;;;2.80;99.90;;;3.35;100.00;98446.34;5080504;28;20509;-76
2022/02/01 10:33:59;;;;;;;4.53;2.10;;;2.80;99.90;;;3.36;100.00;98440.25;5080641;28;20445;-77
2022/02/01 10:37:01;;;;;;;2.07;1.80;;;2.90;99.90;;;3.40;100.00;98443.38;5076291;28;20995;-76
2022/02/01 10:39:34;;;;;;;8.13;2.00;;;2.90;99.90;;;3.30;100.00;98448.50;5076173;28;21068;-76
2022/02/01 10:42:09;;;;;;;3.37;1.80;;;2.70;99.90;;;3.30;100.00;98443.34;5075736;28;20495;-76
2022/02/01 10:44:43;;;;;;;1.87;1.70;;;2.70;99.90;;;3.29;100.00;98433.97;5075459;28;20943;-76
2022/02/01 10:47:16;;;;;;;1.50;1.40;;;2.70;99.90;;;3.37;100.00;98421.19;5074714;28;20460;-76
2022/02/01 10:50:06;;;;;;;2.47;2.03;;;2.80;99.90;;;3.34;100.00;98421.44;5076678;28;20459;-76
2022/02/01 10:52:37;;;;;;;1.53;1.43;;;2.90;99.90;;;3.39;100.00;98413.31;5078575;28;20513;-76
2022/02/01 10:55:10;;;;;;;7.13;2.37;;;2.90;99.90;;;3.38;100.00;98411.66;5083076;28;20940;-76
2022/02/01 10:57:41;;;;;;;2.10;1.50;;;2.90;99.90;;;3.44;100.00;98400.78;5085848;28;20948;-76
2022/02/01 11:00:16;;;;;;;4.77;1.30;;;3.00;99.90;;;3.42;100.00;98382.84;5084003;28;20455;-76
2022/02/01 11:02:48;;;;;;;1.93;1.40;;;2.90;99.90;;;3.38;100.00;98376.31;5083688;28;21059;-77
2022/02/01 11:05:20;;;;;;;1.23;1.13;;;2.80;99.90;;;3.39;100.00;98366.78;5085023;28;20451;-76
2022/02/01 11:08:07;;;;;;;2.87;1.40;;;2.90;99.90;;;3.41;100.00;98360.53;5082882;28;20452;-76
2022/02/01 11:10:37;;;;;;;1.60;1.40;;;2.90;99.90;;;3.42;100.00;98357.00;5084831;28;20489;-76
2022/02/01 11:13:11;;;;;;;1.40;1.30;;;2.90;99.90;;;3.47;100.00;98346.28;5082841;28;21026;-76
2022/02/01 11:15:54;;;;;;;1.80;1.13;;;2.90;99.90;;;3.51;100.00;98339.84;5084967;28;20491;-76
2022/02/01 11:18:26;;;;;;;1.53;1.20;;;2.90;99.90;;;3.54;100.00;98324.88;5085765;28;20435;-76
2022/02/01 11:21:11;;;;;;;0.90;0.90;;;3.00;99.90;;;3.60;100.00;98327.91;5085165;28;20467;-77
2022/02/01 11:23:49;;;;;;;1.13;0.93;;;3.10;99.90;;;3.51;100.00;98319.16;5083819;28;20435;-76
2022/02/01 11:26:30;;;;;;;5.20;1.40;;;3.00;99.90;;;3.64;100.00;98311.16;5083364;28;20863;-76
2022/02/01 11:29:29;;;;;;;1.30;1.20;;;3.10;99.90;;;3.66;100.00;98299.72;5084123;28;20487;-76
2022/02/01 11:32:04;;;;;;;2.40;1.43;;;3.20;99.90;;;3.58;100.00;98293.59;5081800;28;20488;-76
2022/02/01 11:35:03;;;;;;;2.50;1.20;;;3.10;99.90;;;3.58;100.00;98296.16;5084796;28;20441;-77
2022/02/01 11:37:32;;;;;;;0.90;0.80;;;3.00;99.90;;;3.58;100.00;98293.59;5083927;28;20561;-76
2022/02/01 11:40:01;;;;;;;1.00;0.90;;;3.00;99.90;;;3.53;100.00;98279.34;5083575;28;20855;-76
2022/02/01 11:42:35;;;;;;;1.73;1.07;;;2.90;99.90;;;3.60;100.00;98281.34;5083174;28;20868;-77
2022/02/01 11:45:08;;;;;;;1.57;1.30;;;3.10;99.90;;;3.55;100.00;98269.66;5082336;28;20457;-76
2022/02/01 11:47:43;;;;;;;0.97;0.87;;;3.00;99.90;;;3.65;100.00;98255.91;5083394;28;20872;-76
2022/02/01 11:50:18;;;;;;;2.70;1.30;;;3.20;99.90;;;3.67;100.00;98235.91;5085112;28;20844;-76
2022/02/01 11:52:52;;;;;;;1.00;0.90;;;3.20;99.90;;;3.62;100.00;98227.75;5082622;28;20456;-76
2022/02/01 11:55:25;;;;;;;1.57;1.10;;;3.10;99.90;;;3.55;100.00;98235.22;5083751;28;20471;-76
2022/02/01 11:58:05;;;;;;;1.83;1.13;;;3.00;99.90;;;3.59;100.00;98231.41;5083460;28;20534;-76
2022/02/01 12:00:41;;;;;;;1.73;1.00;;;3.00;99.90;;;3.68;100.00;98232.38;5084272;28;20448;-76
2022/02/01 12:03:16;;;;;;;2.00;1.20;;;3.00;99.90;;;3.65;100.00;98233.44;5082121;28;20476;-76
2022/02/01 12:05:57;;;;;;;1.30;1.17;;;3.00;99.90;;;3.71;100.00;98221.75;5082985;28;20451;-76
2022/02/01 12:08:31;;;;;;;1.13;1.03;;;3.10;99.90;;;3.69;100.00;98214.13;5083424;28;20887;-76
2022/02/01 12:11:04;;;;;;;1.03;0.93;;;3.10;99.90;;;3.68;100.00;98211.69;5075813;28;20531;-76
2022/02/01 12:13:36;;;;;;;1.80;1.13;;;3.10;99.90;;;3.70;100.00;98220.09;5075734;28;20452;-76
2022/02/01 12:16:11;;;;;;;1.40;1.30;;;3.00;99.90;;;3.75;100.00;98207.59;5074534;28;20488;-76
2022/02/01 12:18:58;;;;;;;1.10;1.10;;;3.20;99.90;;;3.70;100.00;98204.59;5077887;28;20847;-76
2022/02/01 12:21:48;;;;;;;1.00;1.00;;;3.20;99.90;;;3.68;100.00;98196.19;5077264;28;20527;-77
2022/02/01 12:24:17;;;;;;;0.90;0.90;;;3.10;99.90;;;3.55;100.00;98186.94;5079205;28;20478;-76
2022/02/01 12:26:49;;;;;;;1.20;1.00;;;2.90;99.90;;;3.54;100.00;98190.47;5077429;28;20975;-76
2022/02/01 12:29:18;;;;;;;1.10;1.00;;;3.00;99.90;;;3.54;100.00;98194.81;5077446;28;20448;-76
2022/02/01 12:31:52;;;;;;;0.90;0.90;;;3.00;99.90;;;3.59;100.00;98191.81;5077395;28;20457;-76